Bienvenidos al Sitio de AASANA BOLIVIA
Aeropuerto: Internaciónal El Alto
HORA UTC 02:00
08°C
Humedad: 21%

Fecha: 20/11/2017


Humo
ESTACIÓN:SLLP
LATITUD|LONGITUD:16-08S|68-10W
HORA UTC:02:00
DESCRIPCIÓN: SLLP 210200Z VRB02KT 9999 NSC 08/M13 Q1035 A3059 626.5 FU HR21 NOSIG= 
Regional La Paz
EstaciónAeropuertoHora UTCDescripción
SLAPApolo14-44S-68-24W
SLCNCharaña17-35S-69-25W
SLUYUyuni20-27S-62-52W SLUY 210100Z 24014KT 9999 NSC 09/M12 Q1032 A3047 656.9 HR21= 
SLSBSan Borja14-51S-66-44W SLSB 202300Z 00000KT 9999 BKN080 28/23 Q1005 A2970 HR78 RWY HUM OPR=
SLLPInternaciónal El Alto16-08S-68-10W SLLP 210200Z VRB02KT 9999 NSC 08/M13 Q1035 A3059 626.5 FU HR21 NOSIG= 
SLRYReyes14-18S-67-21W SLRY 202200Z 00000KT 9999 FEW020 SCT080 28/23 Q1005 A2970 HR74 RWY NML=
SLRQRurrenabaque14-25S-67-29W SLRQ 202200Z 00000KT 9999 BKN017 FEW020CB BKN070 28/24 Q1005 A2970 HR83 CB S/SW/W=
SLOROruro17-57S-67-04W SLOR 202000Z 20010KT 9999 NSC 19/03 Q1030 A3042 652.6 CI HR34= 
Regional Cochabamba
EstaciónAeropuertoHora UTCDescripción
SLAGMonteagudo19-49S-63-58W SLAG 202300Z 36004KT 9999 NSC 28/15 Q1007 A2975 880.7 HR46 FU CI=
SLHIChimore16-58S-65-09W SLHI 201900Z 00000KT 9999 FEW017 32/20 Q1006 A2973 979.8 HR49 CI= 
SLCBCochabamba17-25S-66-10W SLCB 210200Z 12010KT 9999 NSC 21/M05 Q1019 A3011 747.3 HR18 CI FU NOSIG=
SLBJBermejo22-46S-64-18W SLBJ 202100Z 36008KT 9999 FEW015 36/22 Q1001 A2958 HR45 FU= 
SLPOPotosí19-32S-65-43W SLPO 201600Z 24015KT 9999 NSC 15/M08 Q1032 A3047 HR20 CI=
SLALAlcantari19-14S-65-09W SLAL 210200Z 01006KT 9999 NSC 14/05 Q1025 A3027 HR54 CI=
SLTJTarija21-33S-64-42W SLTJ 210200Z 13004KT 9999 NSC 20/11 Q1016 A3001 HR54= 
SLVMVillamontes21-15S-63-24W SLVM 202000Z 03005KT 9999 NSC 37/15 Q1001 A2957 HR27 FU CI=
SLYAYacuiba21-57S-63-39W SLYA 202300Z 00000KT 9999 NSC 27/20 Q1004 A2966 HR65 FU= SABO SLTR 202300
Regional Santa Cruz
EstaciónAeropuertoHora UTCDescripción
SLVRInternaciónal Viru Viru17-38S-63-08W SLVR 210200Z 36007KT 9999 NSC 25/21 Q1008 A2977 HR79 CI NOSIG= 
SLETEl Trompillo17-48S-63-10W SLET 202300Z 32013KT 9999 FEW020 SCT200 28/20 Q1005 A2969 HR63 NOSIG=
SLSISan Ignacio de Velasco16-23S-60-57W COR SLSI 202300Z 00000KT 9999 SCT020 27/24 Q1006 A2971 HR82 RWY NML=
SLASAscención de Guarayos15-55S-63-09W SLAS 202200Z 00000KT 9999 NSC 28/25 Q1007 A2974 HR80 RWY NML=
SLCACamiri20-00S-63-31W SLCA 202300Z 36010KT 9999 NSC 30/15 Q1007 A2974 HR40 CI RWY NML = SABO SLLP 202300
SLJVSan Javier16-16S-62-28W SLJV 202200Z 00000KT 9999 NSC 27/22 Q1006 A2971 HR68 RWY NML=
SLCPConcepción16-08S-62-01W SLCP 202200Z 36010KT 9999 FEW017 28/24 Q1009 A2980 HR82 RWY NML =
SLTISan Matías16-20S-58-24W SLTI 202200Z 00000KT 9999 FEW020 31/24 Q1008 A2977 HR64 RWY NML =
SLJESan José de Chiquitos17-49S-60-44W SLJE 202200Z 00000KT 9999 BKN020 30/23 Q1007 A2975 HR66 RWY HUM OPR C210=
SLVGValle Grande18-28S-64-05W SLVG 202100Z 02005KT 9999 NSC 22/12 Q1017 A3003 HR50 CI RWY NML =
SLRBRoboré18-19S-59-45W SLRB 202300Z 00000KT 9999 NSC 29/24 Q1007 A2974 HR77 RWY NML=
SLPSPuerto Suárez18-58S-57-49W SLPS 202300Z 00000KT 9999 NSC 30/25 Q1005 A2968 HR73=
Regional Beni
EstaciónAeropuertoHora UTCDescripción
SLSMSan Ignacio de Moxos14-57S-65-38W SLSM 202200Z 32004KT 9999 FEW017 BKN080 29/23 Q1004 A2967 HR71 RWY NML= 
SLTRTrinidad14-49S-64-54W SLTR 202300Z 34003KT 9999 FEW017 SCT070 27/24 Q1005 A2971 987.5 HR82 CI NOSIG=
SLJOSan Joaquin13-03S-64-39W SLJO 202200Z 00000KT 7000 VCSH FEW017 FEW023CB BKN200 25/25 Q1006 A2973 HR98 RERA CB/SH SE/S/SW RWY OPR C210=
SLBUBaures13-39S-63-42W SLBU 202200Z NIL=
SLGMGuayaramerín- SLGM 202300Z 00000KT 9999 FEW015 SCT200 26/24 Q1006 A2973 HR92=
SLCOCobija11-02S-68-47W SLCO 202300Z 00000KT 9999 FEW008 BKN070 24/24 Q1006 A2973 979.6 HR98 CI=
SLRIRiberalta11-00S-66-04W SLRI 202300Z 00000KT 9999 FEW015 SCT080 BKN200 24/23 Q1008 A2976 HR92=
SLSRSanta Rosa14-04S-66-47W SLSR 202200Z 00000KT 9999 FEW017 29/24 Q1005 A2970 HR74 RWY HUM OPR=
SLSASanta Ana de Yacuma13-45S-65-26W SLSA 202300Z 34004KT 9999 FEW017 SCT080 27/23 Q1005 A2969 HR78= 
SLMGSan Magdalena13-15S-64-36W SLMG 202300Z 00000KT 9999 FEW017 FEW023CB 27/24 Q1006 A2971 HR82 CB SW RWY NML=
SLRASan Ramón13-15S-64-36W SLRA 202200Z 36008KT 7000 VCSH SCT017 FEW023CB 28/23 Q1005 A2970 HR78 CB/SH NE/SW/NW RWY NML=